Time;durP1;ratioP1;P1;durP2;ratioP2;P2;SDS_P1;SDS_P2;PMS_P1;PMS_P2;Temp;Humidity;BMP_temperature;BMP_pressure;BME280_temperature;BME280_humidity;BME280_pressure;Samples;Min_cycle;Max_cycle;Signal;HPM_P1;HPM_P2
2023/06/25 00:01:43;;;;;;;5.60;4.83;;;;;;;17.12;75.38;98539.56;5050470;28;20223;-80
2023/06/25 00:04:10;;;;;;;8.43;4.80;;;;;;;17.10;75.31;98541.53;5050712;28;20590;-80
2023/06/25 00:06:36;;;;;;;5.33;4.83;;;;;;;17.09;75.83;98533.66;5050681;28;20322;-80
2023/06/25 00:09:04;;;;;;;5.67;4.93;;;;;;;17.12;75.65;98534.22;5050523;28;20228;-80
2023/06/25 00:11:30;;;;;;;5.53;5.03;;;;;;;17.08;76.26;98532.78;5050945;28;20219;-80
2023/06/25 00:13:57;;;;;;;5.47;4.97;;;;;;;17.09;76.35;98528.31;5050955;28;20232;-80
2023/06/25 00:16:25;;;;;;;5.70;5.07;;;;;;;17.06;76.49;98528.59;5050899;28;20212;-80
2023/06/25 00:18:51;;;;;;;5.90;5.00;;;;;;;17.06;76.41;98531.28;5052344;28;20632;-80
2023/06/25 00:21:18;;;;;;;5.57;5.07;;;;;;;17.06;76.07;98526.75;5054258;28;20219;-79
2023/06/25 00:23:44;;;;;;;5.60;5.00;;;;;;;17.03;76.54;98526.19;5054637;28;20228;-80
2023/06/25 00:26:11;;;;;;;5.60;5.10;;;;;;;17.01;77.30;98525.50;5054686;28;20208;-80
2023/06/25 00:28:37;;;;;;;5.90;5.27;;;;;;;16.97;77.46;98527.59;5054520;28;20228;-80
2023/06/25 00:31:04;;;;;;;5.93;5.40;;;;;;;16.96;77.71;98533.88;5054185;28;20208;-80
2023/06/25 00:33:32;;;;;;;6.20;5.27;;;;;;;16.92;77.75;98521.81;5054343;28;20717;-79
2023/06/25 00:36:07;;;;;;;6.30;5.03;;;;;;;16.89;77.52;98524.72;5054526;28;20208;-79
2023/06/25 00:38:34;;;;;;;5.80;5.27;;;;;;;16.88;77.91;98522.22;5054594;28;20290;-80
2023/06/25 00:41:00;;;;;;;6.03;5.07;;;;;;;16.86;78.04;98511.66;5054284;28;20226;-80
2023/06/25 00:43:27;;;;;;;5.53;5.00;;;;;;;16.86;78.40;98522.34;5054439;28;20235;-79
2023/06/25 00:45:57;;;;;;;5.63;5.07;;;;;;;16.88;78.77;98520.38;5053892;28;20204;-79
2023/06/25 00:48:24;;;;;;;5.70;5.20;;;;;;;16.87;78.78;98518.69;5053900;28;20281;-80
2023/06/25 00:50:51;;;;;;;5.77;5.00;;;;;;;16.86;78.85;98517.00;5053884;28;20204;-80
2023/06/25 00:53:18;;;;;;;5.63;5.10;;;;;;;16.84;78.39;98515.44;5053642;28;20724;-79
2023/06/25 00:55:50;;;;;;;5.50;5.00;;;;;;;16.83;78.53;98511.09;5053942;28;20299;-80
2023/06/25 00:58:22;;;;;;;5.70;5.00;;;;;;;16.79;79.32;98513.19;5053625;28;20747;-79
2023/06/25 01:00:49;;;;;;;7.43;5.70;;;;;;;16.77;79.70;98516.97;5053368;28;20208;-80
2023/06/25 01:03:26;;;;;;;6.07;5.30;;;;;;;16.72;79.61;98517.38;5054207;28;20259;-79
2023/06/25 01:06:03;;;;;;;6.90;6.20;;;;;;;16.66;80.64;98509.91;5053872;28;20234;-80
2023/06/25 01:08:30;;;;;;;6.37;5.77;;;;;;;16.67;80.31;98516.94;5055100;28;20254;-80
2023/06/25 01:10:57;;;;;;;6.63;5.80;;;;;;;16.63;80.51;98504.00;5061469;28;20219;-80
2023/06/25 01:13:24;;;;;;;6.00;5.40;;;;;;;16.57;81.40;98505.38;5053785;28;20728;-80
2023/06/25 01:15:50;;;;;;;6.83;6.13;;;;;;;16.53;81.67;98493.25;5061888;28;20234;-79
2023/06/25 01:18:17;;;;;;;7.10;6.10;;;;;;;16.50;81.62;98498.88;5053781;28;20212;-80
2023/06/25 01:20:44;;;;;;;6.67;5.87;;;;;;;16.45;81.74;98492.28;5053528;28;20254;-80
2023/06/25 01:23:12;;;;;;;6.80;5.73;;;;;;;16.44;81.83;98498.56;5053785;28;20243;-79
2023/06/25 01:25:39;;;;;;;6.73;6.10;;;;;;;16.38;82.43;98494.63;5053870;28;20273;-80
2023/06/25 01:28:05;;;;;;;6.57;5.87;;;;;;;16.34;82.75;98493.16;5053753;28;20228;-80
2023/06/25 01:30:32;;;;;;;5.83;5.23;;;;;;;16.34;82.63;98487.81;5053518;28;20386;-79
2023/06/25 01:32:59;;;;;;;6.37;5.77;;;;;;;16.31;82.43;98488.09;5054155;28;20212;-80
2023/06/25 01:35:26;;;;;;;7.00;6.30;;;;;;;16.28;83.27;98488.34;5054643;28;20208;-79
2023/06/25 01:37:52;;;;;;;6.80;5.80;;;;;;;16.29;83.24;98491.88;5054192;28;20236;-80
2023/06/25 01:40:20;;;;;;;6.30;5.70;;;;;;;16.27;82.83;98486.66;5054254;28;20208;-80
2023/06/25 01:42:46;;;;;;;6.83;5.80;;;;;;;16.23;82.64;98489.72;5055092;28;20208;-80
2023/06/25 01:45:13;;;;;;;6.60;5.90;;;;;;;16.23;82.99;98495.91;5054588;28;20243;-80
2023/06/25 01:47:41;;;;;;;5.53;5.03;;;;;;;16.22;83.56;98488.88;5056122;28;20204;-80
2023/06/25 01:50:08;;;;;;;6.03;5.27;;;;;;;16.22;83.47;98483.53;5077687;28;20196;-79
2023/06/25 01:52:35;;;;;;;5.90;5.40;;;;;;;16.18;83.80;98487.47;5077916;28;20219;-80
2023/06/25 01:55:01;;;;;;;6.43;5.70;;;;;;;16.19;84.16;98482.97;5077458;28;20232;-79
2023/06/25 01:57:29;;;;;;;6.63;5.97;;;;;;;16.15;85.03;98476.22;5077555;28;20210;-79
2023/06/25 01:59:56;;;;;;;6.03;5.47;;;;;;;16.14;85.40;98475.34;5077402;28;20226;-80
2023/06/25 02:02:22;;;;;;;7.03;6.33;;;;;;;16.08;86.55;98481.22;5077175;28;20196;-79
2023/06/25 02:04:49;;;;;;;6.10;5.50;;;;;;;16.08;86.68;98474.19;5077649;28;20216;-79
2023/06/25 02:07:15;;;;;;;7.17;5.63;;;;;;;16.02;87.56;98477.41;5073986;28;20208;-79
2023/06/25 02:09:42;;;;;;;6.40;5.80;;;;;;;15.98;87.90;98478.63;5076194;28;20247;-80
2023/06/25 02:12:09;;;;;;;7.87;6.50;;;;;;;15.91;87.99;98475.66;5076773;28;20232;-80
2023/06/25 02:14:36;;;;;;;6.40;5.80;;;;;;;15.83;88.07;98474.59;5073069;28;20219;-79
2023/06/25 02:17:03;;;;;;;6.70;6.00;;;;;;;15.72;88.24;98477.34;5063169;28;20215;-80
2023/06/25 02:19:30;;;;;;;7.20;6.27;;;;;;;15.64;88.97;98459.31;5064608;28;20204;-80
2023/06/25 02:21:56;;;;;;;7.10;6.40;;;;;;;15.60;90.00;98473.03;5068231;28;20290;-79
2023/06/25 02:24:22;;;;;;;7.30;6.60;;;;;;;15.58;90.56;98469.66;5064624;28;20228;-79
2023/06/25 02:26:49;;;;;;;7.60;6.80;;;;;;;15.51;90.87;98465.81;5064675;28;20709;-80
2023/06/25 02:29:15;;;;;;;7.13;6.43;;;;;;;15.47;91.64;98461.72;5064073;28;20224;-80
2023/06/25 02:31:43;;;;;;;6.70;6.00;;;;;;;15.40;91.69;98461.38;5063499;28;20218;-77
2023/06/25 02:34:10;;;;;;;6.03;5.53;;;;;;;15.36;92.13;98459.09;5074765;28;20232;-81
2023/06/25 02:36:36;;;;;;;6.60;5.93;;;;;;;15.33;92.91;98459.38;5075690;28;20239;-81
2023/06/25 02:39:03;;;;;;;6.03;5.43;;;;;;;15.35;93.31;98465.41;5075292;28;20208;-80
2023/06/25 02:41:30;;;;;;;7.80;5.60;;;;;;;15.33;93.61;98459.38;5069749;28;20204;-80
2023/06/25 02:43:56;;;;;;;5.87;5.20;;;;;;;15.32;93.52;98457.63;5072961;28;20228;-80
2023/06/25 02:46:22;;;;;;;6.30;5.60;;;;;;;15.29;93.36;98458.75;5070732;28;20210;-81
2023/06/25 02:48:50;;;;;;;7.60;5.87;;;;;;;15.26;93.56;98463.44;5067094;28;20234;-80
2023/06/25 02:51:17;;;;;;;7.27;6.00;;;;;;;15.26;93.95;98463.44;5067929;28;20464;-80
2023/06/25 02:53:43;;;;;;;6.40;5.60;;;;;;;15.26;94.44;98458.13;5082572;22;20236;-80
2023/06/25 02:56:10;;;;;;;5.93;5.33;;;;;;;15.27;94.32;98454.50;5091920;28;20210;-80
2023/06/25 02:58:36;;;;;;;6.53;5.83;;;;;;;15.29;94.40;98463.22;5091695;28;20206;-79
2023/06/25 03:01:03;;;;;;;6.83;6.13;;;;;;;15.32;94.40;98446.97;5091475;28;20692;-78
2023/06/25 03:03:30;;;;;;;6.83;5.97;;;;;;;15.35;93.65;98450.28;5089222;28;20241;-80
2023/06/25 03:05:58;;;;;;;7.33;5.63;;;;;;;15.30;93.80;98448.91;5071340;28;20207;-78
2023/06/25 03:08:25;;;;;;;6.63;5.77;;;;;;;15.26;93.70;98458.97;5071562;28;20230;-78
2023/06/25 03:10:51;;;;;;;7.57;6.77;;;;;;;15.21;94.50;98455.84;5071179;28;20208;-79
2023/06/25 03:13:18;;;;;;;7.37;6.50;;;;;;;15.15;94.86;98453.69;5071142;28;20207;-80
2023/06/25 03:15:44;;;;;;;6.77;5.80;;;;;;;15.13;94.93;98457.44;5071403;28;20208;-80
2023/06/25 03:18:11;;;;;;;6.70;5.33;;;;;;;15.07;94.89;98453.50;5071069;28;20203;-80
2023/06/25 03:20:37;;;;;;;7.40;5.73;;;;;;;15.02;95.76;98455.69;5070738;28;20599;-80
2023/06/25 03:23:08;;;;;;;6.93;6.23;;;;;;;15.05;95.34;98459.91;5071377;28;20211;-79
2023/06/25 03:25:35;;;;;;;6.63;6.03;;;;;;;15.00;95.85;98456.78;5070981;28;20231;-80
2023/06/25 03:28:01;;;;;;;7.40;6.20;;;;;;;14.97;96.10;98446.38;5071253;28;20208;-80
2023/06/25 03:30:28;;;;;;;7.83;6.90;;;;;;;14.94;96.52;98447.50;5070769;28;20596;-79
2023/06/25 03:32:54;;;;;;;6.70;6.00;;;;;;;14.94;97.30;98451.94;5070986;28;20218;-79
2023/06/25 03:35:21;;;;;;;6.63;6.03;;;;;;;14.94;97.67;98451.94;5070896;28;20717;-80
2023/06/25 03:37:47;;;;;;;7.60;6.47;;;;;;;14.96;97.09;98450.03;5071131;28;20556;-79
2023/06/25 03:40:15;;;;;;;7.30;6.33;;;;;;;14.97;97.38;98447.22;5070831;28;20587;-80
2023/06/25 03:42:42;;;;;;;7.80;7.00;;;;;;;14.99;97.32;98444.44;5071053;28;20535;-79
2023/06/25 03:45:09;;;;;;;7.13;6.43;;;;;;;15.05;97.98;98444.78;5070752;28;20250;-80
2023/06/25 03:47:36;;;;;;;8.20;6.80;;;;;;;15.12;97.33;98453.09;5070873;28;20215;-80
2023/06/25 03:50:02;;;;;;;7.13;6.43;;;;;;;15.12;96.83;98450.44;5070471;28;20231;-79
2023/06/25 03:52:29;;;;;;;9.37;6.50;;;;;;;15.10;97.41;98442.56;5070902;28;20211;-80
2023/06/25 03:54:55;;;;;;;7.63;6.53;;;;;;;15.13;98.02;98444.13;5073682;28;20235;-80
2023/06/25 03:57:23;;;;;;;6.60;5.93;;;;;;;15.23;97.44;98442.41;5074831;28;20826;-79
2023/06/25 03:59:49;;;;;;;6.63;5.93;;;;;;;15.24;97.04;98444.09;5074514;28;20203;-80
2023/06/25 04:02:16;;;;;;;7.00;6.27;;;;;;;15.27;96.56;98449.19;5074601;28;20215;-80
2023/06/25 04:04:42;;;;;;;7.20;6.20;;;;;;;15.25;97.66;98441.31;5074879;28;20231;-80
2023/06/25 04:07:09;;;;;;;7.13;6.10;;;;;;;15.26;98.26;98436.81;5074797;28;20294;-80
2023/06/25 04:09:35;;;;;;;6.20;5.60;;;;;;;15.28;97.45;98434.91;5074487;28;20234;-78
2023/06/25 04:12:02;;;;;;;6.73;6.00;;;;;;;15.29;97.75;98431.25;5074596;28;20218;-80
2023/06/25 04:14:29;;;;;;;6.13;5.53;;;;;;;15.30;97.57;98435.59;5074456;28;20744;-78
2023/06/25 04:16:56;;;;;;;8.80;5.93;;;;;;;15.30;98.31;98435.59;5074499;28;20210;-80
2023/06/25 04:19:22;;;;;;;5.97;5.37;;;;;;;15.35;98.49;98438.78;5074212;28;20216;-80
2023/06/25 04:21:49;;;;;;;6.33;5.73;;;;;;;15.36;98.08;98429.81;5074648;28;20212;-80
2023/06/25 04:24:15;;;;;;;6.33;5.63;;;;;;;15.41;97.52;98430.28;5074283;28;20232;-80
2023/06/25 04:26:42;;;;;;;7.47;6.37;;;;;;;15.46;97.30;98422.75;5074244;28;20207;-79
2023/06/25 04:29:08;;;;;;;7.50;6.30;;;;;;;15.51;97.86;98423.19;5073760;28;20234;-80
2023/06/25 04:31:36;;;;;;;6.80;6.10;;;;;;;15.59;98.61;98423.38;5074559;28;20258;-80
2023/06/25 04:34:03;;;;;;;7.13;6.43;;;;;;;15.64;98.84;98422.00;5074366;28;20554;-78
2023/06/25 04:36:30;;;;;;;7.00;6.30;;;;;;;15.71;98.74;98414.34;5074043;28;20238;-78
2023/06/25 04:38:56;;;;;;;7.90;7.10;;;;;;;15.80;98.13;98422.41;5073231;28;20203;-78
2023/06/25 04:41:23;;;;;;;7.10;6.40;;;;;;;15.86;96.65;98426.34;5073798;28;20214;-79
2023/06/25 04:43:49;;;;;;;7.97;6.53;;;;;;;15.90;95.28;98418.00;5073832;28;20235;-79
2023/06/25 04:46:15;;;;;;;8.37;6.70;;;;;;;15.94;95.19;98419.38;5073981;28;20208;-79
2023/06/25 04:48:46;;;;;;;7.10;6.40;;;;;;;15.98;96.54;98423.50;5074109;28;20211;-78
2023/06/25 04:51:12;;;;;;;6.97;6.27;;;;;;;15.98;96.84;98421.66;5074003;28;20282;-79
2023/06/25 04:53:39;;;;;;;7.50;6.80;;;;;;;15.98;97.14;98426.97;5073713;28;20235;-81
2023/06/25 04:56:05;;;;;;;7.10;6.40;;;;;;;16.03;98.36;98423.94;5073854;28;20212;-80
2023/06/25 04:58:32;;;;;;;8.03;6.83;;;;;;;16.17;99.76;98427.09;5073701;28;20558;-80
2023/06/25 05:00:59;;;;;;;7.40;6.67;;;;;;;16.38;98.92;98432.41;5073550;28;20305;-81
2023/06/25 05:03:25;;;;;;;7.83;6.40;;;;;;;16.76;95.98;98420.03;5073809;28;20575;-81
2023/06/25 05:05:53;;;;;;;6.83;6.13;;;;;;;17.29;91.96;98413.34;5073302;28;20215;-80
2023/06/25 05:08:20;;;;;;;7.83;6.33;;;;;;;18.00;87.76;98410.19;5073585;28;20219;-80
2023/06/25 05:10:47;;;;;;;6.70;6.00;;;;;;;18.79;83.10;98406.03;5073069;28;20288;-80
2023/06/25 05:13:13;;;;;;;7.20;6.40;;;;;;;19.56;78.02;98393.78;5073792;28;20264;-80
2023/06/25 05:15:41;;;;;;;6.33;5.73;;;;;;;20.22;74.99;98392.22;5073334;28;20595;-80
2023/06/25 05:18:08;;;;;;;7.90;6.70;;;;;;;20.83;72.26;98390.97;5073637;28;20207;-80
2023/06/25 05:20:35;;;;;;;9.80;6.30;;;;;;;21.34;69.54;98393.44;5073180;28;20203;-81
2023/06/25 05:23:04;;;;;;;7.90;6.57;;;;;;;21.76;65.72;98378.00;5073398;28;20301;-79
2023/06/25 05:25:31;;;;;;;7.67;6.90;;;;;;;22.17;63.22;98381.47;5072984;28;20231;-79
2023/06/25 05:27:57;;;;;;;8.07;6.87;;;;;;;22.47;61.52;98378.91;5073123;28;20214;-79
2023/06/25 05:30:24;;;;;;;7.47;6.73;;;;;;;22.79;60.55;98384.13;5072963;28;20702;-79
2023/06/25 05:32:51;;;;;;;10.13;7.60;;;;;;;23.10;58.64;98374.19;5073255;28;20203;-79
2023/06/25 05:35:17;;;;;;;7.73;6.93;;;;;;;23.41;57.50;98375.00;5072899;28;20715;-79
2023/06/25 05:37:44;;;;;;;7.80;6.47;;;;;;;23.61;56.75;98376.22;5072989;28;20294;-79
2023/06/25 05:40:13;;;;;;;7.23;6.50;;;;;;;23.90;55.56;98368.19;5072556;28;20287;-79
2023/06/25 05:42:39;;;;;;;7.07;6.37;;;;;;;24.13;54.17;98368.16;5073168;28;20211;-79
2023/06/25 05:45:07;;;;;;;6.10;5.50;;;;;;;24.39;53.18;98361.25;5072953;28;20234;-79
2023/06/25 05:47:34;;;;;;;6.60;5.53;;;;;;;24.66;52.56;98360.63;5072954;28;20577;-79
2023/06/25 05:50:01;;;;;;;6.00;5.40;;;;;;;24.86;50.93;98358.97;5072399;28;20317;-80
2023/06/25 05:52:27;;;;;;;6.07;5.40;;;;;;;24.99;50.03;98350.19;5072878;28;20203;-79
2023/06/25 05:54:54;;;;;;;7.23;5.40;;;;;;;25.05;49.57;98347.56;5072603;28;20239;-79
2023/06/25 05:57:21;;;;;;;6.17;5.57;;;;;;;25.17;48.52;98340.59;5072837;28;20215;-79
2023/06/25 05:59:48;;;;;;;5.70;5.20;;;;;;;25.19;48.44;98338.56;5072522;28;20204;-80
2023/06/25 06:02:14;;;;;;;5.53;5.03;;;;;;;25.32;48.87;98343.28;5072568;28;20203;-79
2023/06/25 06:04:41;;;;;;;5.20;4.70;;;;;;;25.54;48.68;98347.69;5072535;28;20702;-77
2023/06/25 06:07:07;;;;;;;5.30;4.83;;;;;;;25.78;47.42;98339.13;5072284;28;20726;-77
2023/06/25 06:09:34;;;;;;;6.10;4.90;;;;;;;25.95;46.96;98340.53;5072236;28;20231;-77
2023/06/25 06:12:00;;;;;;;5.40;4.90;;;;;;;26.08;47.23;98346.06;5072205;28;20212;-77
2023/06/25 06:14:28;;;;;;;5.57;5.07;;;;;;;26.31;46.60;98347.47;5072224;28;20245;-77
2023/06/25 06:16:54;;;;;;;4.80;4.35;;;;;;;26.41;45.86;98337.09;5071658;28;20204;-77
2023/06/25 06:19:21;;;;;;;5.40;4.90;;;;;;;26.47;44.81;98336.31;5072078;28;20219;-77
2023/06/25 06:21:47;;;;;;;5.38;4.88;;;;;;;26.64;44.31;98348.50;5072175;28;20701;-78
2023/06/25 06:24:14;;;;;;;5.07;4.60;;;;;;;26.82;43.33;98335.22;5072182;28;20543;-78
2023/06/25 06:29:15;;;;;;;5.70;5.05;;;;;;;27.14;43.13;98342.66;5072027;28;20203;-78
2023/06/25 06:31:43;;;;;;;5.68;4.97;;;;;;;27.12;42.49;98339.28;5072062;28;20211;-77
2023/06/25 06:34:09;;;;;;;5.53;5.03;;;;;;;27.26;42.57;98343.72;5071761;28;20239;-77
2023/06/25 06:36:36;;;;;;;5.72;5.15;;;;;;;27.23;41.87;98338.72;5071759;28;20588;-76
2023/06/25 06:39:03;;;;;;;5.80;4.82;;;;;;;27.41;42.95;98355.25;5071884;28;20212;-76
2023/06/25 06:41:29;;;;;;;5.68;4.72;;;;;;;27.40;40.99;98335.41;5071585;28;20207;-76
2023/06/25 06:44:10;;;;;;;5.38;4.82;;;;;;;27.54;41.88;98347.13;5071599;28;20709;-76
2023/06/25 06:46:37;;;;;;;5.38;4.88;;;;;;;27.68;41.74;98337.94;5071716;28;20230;-76
2023/06/25 06:49:05;;;;;;;5.55;5.05;;;;;;;27.65;41.54;98338.38;5071461;28;20218;-76
2023/06/25 06:51:32;;;;;;;6.30;5.30;;;;;;;27.66;41.40;98334.59;5071472;28;20231;-76
2023/06/25 06:53:58;;;;;;;5.88;5.38;;;;;;;27.69;41.08;98336.91;5071552;28;20242;-76
2023/06/25 06:56:25;;;;;;;5.80;5.28;;;;;;;27.74;40.64;98328.94;5071512;28;20207;-77
2023/06/25 06:58:51;;;;;;;5.80;5.20;;;;;;;27.90;40.94;98336.72;5071523;28;20629;-76
2023/06/25 07:01:18;;;;;;;5.55;5.00;;;;;;;27.99;40.57;98336.28;5071044;28;20207;-76
2023/06/25 07:03:44;;;;;;;5.80;5.30;;;;;;;28.03;40.48;98331.25;5071572;28;20227;-76
2023/06/25 07:06:12;;;;;;;6.20;5.07;;;;;;;28.06;40.49;98336.28;5071049;28;20204;-75
2023/06/25 07:08:39;;;;;;;5.68;5.18;;;;;;;27.83;40.24;98325.03;5071450;28;20207;-77
2023/06/25 07:11:05;;;;;;;5.63;5.13;;;;;;;27.57;41.05;98325.00;5071054;28;20228;-77
2023/06/25 07:13:33;;;;;;;5.93;5.43;;;;;;;27.17;41.87;98333.25;5071229;28;20207;-83
2023/06/25 07:16:00;;;;;;;5.68;5.18;;;;;;;26.46;42.83;98340.03;5070970;28;20696;-82
2023/06/25 07:18:26;;;;;;;6.32;5.20;;;;;;;25.74;44.16;98341.41;5071632;28;20582;-82
2023/06/25 07:20:53;;;;;;;5.60;5.10;;;;;;;25.22;45.53;98354.41;5070873;28;20215;-79
2023/06/25 07:23:21;;;;;;;5.60;5.10;;;;;;;24.74;47.39;98360.50;5071277;28;20215;-79
2023/06/25 07:25:47;;;;;;;6.17;5.53;;;;;;;24.45;46.72;98348.88;5071045;28;20210;-80
2023/06/25 07:28:14;;;;;;;6.23;5.63;;;;;;;24.31;46.97;98347.84;5071044;28;20216;-79
2023/06/25 07:30:40;;;;;;;7.10;5.90;;;;;;;24.21;48.14;98357.25;5070592;28;20227;-76
2023/06/25 07:33:07;;;;;;;6.67;6.00;;;;;;;24.03;47.47;98354.88;5069992;28;20211;-77
2023/06/25 07:35:33;;;;;;;6.43;5.57;;;;;;;24.05;48.85;98371.75;5070378;28;20254;-77
2023/06/25 07:37:59;;;;;;;6.27;5.67;;;;;;;24.18;47.66;98363.84;5067974;28;20214;-77
2023/06/25 07:40:27;;;;;;;7.00;6.30;;;;;;;24.26;46.41;98350.25;5067729;28;20200;-77
2023/06/25 07:42:54;;;;;;;6.70;6.00;;;;;;;24.28;45.94;98350.94;5068022;28;20239;-77
2023/06/25 07:45:20;;;;;;;6.47;5.87;;;;;;;24.37;46.10;98348.94;5069460;28;20595;-77
2023/06/25 07:47:47;;;;;;;6.77;6.13;;;;;;;24.47;46.25;98353.06;5070747;28;20216;-76
2023/06/25 07:50:13;;;;;;;7.20;6.50;;;;;;;24.60;43.40;98330.78;5069174;28;20717;-77
2023/06/25 07:52:40;;;;;;;6.97;6.18;;;;;;;24.68;43.99;98328.00;5068107;28;20230;-77
2023/06/25 07:55:07;;;;;;;7.13;6.07;;;;;;;24.72;44.02;98340.94;5067816;28;20235;-77
2023/06/25 07:57:35;;;;;;;6.87;6.00;;;;;;;24.86;43.55;98320.31;5067750;28;20208;-78
2023/06/25 08:00:01;;;;;;;7.07;6.27;;;;;;;24.93;42.32;98319.34;5070323;28;20638;-78
2023/06/25 08:02:28;;;;;;;6.93;6.30;;;;;;;25.07;42.65;98321.16;5070891;28;20207;-80
2023/06/25 08:04:56;;;;;;;6.83;6.13;;;;;;;25.16;42.82;98332.69;5067989;28;20231;-80
2023/06/25 08:07:22;;;;;;;7.20;6.43;;;;;;;25.27;42.56;98327.63;5067873;28;20208;-79
2023/06/25 08:09:49;;;;;;;6.88;6.18;;;;;;;25.50;42.27;98316.59;5067906;28;20240;-80
2023/06/25 08:12:16;;;;;;;6.93;6.18;;;;;;;25.54;41.97;98320.59;5069164;28;20239;-79
2023/06/25 08:14:45;;;;;;;6.95;6.00;;;;;;;25.58;41.85;98316.47;5070497;28;20239;-80
2023/06/25 08:17:11;;;;;;;6.70;6.03;;;;;;;25.68;41.67;98317.81;5069424;28;20238;-80
2023/06/25 08:19:38;;;;;;;8.38;6.20;;;;;;;25.70;41.66;98318.44;5067547;28;20211;-79
2023/06/25 08:22:05;;;;;;;7.00;6.20;;;;;;;25.86;40.25;98299.22;5067835;28;20294;-81
2023/06/25 08:24:32;;;;;;;6.97;6.28;;;;;;;25.85;40.07;98292.09;5067749;28;20232;-81
2023/06/25 08:26:58;;;;;;;6.72;6.07;;;;;;;25.88;41.07;98302.56;5070494;28;20211;-82
2023/06/25 08:29:25;;;;;;;7.22;6.30;;;;;;;25.88;41.95;98307.97;5070576;28;20215;-81
2023/06/25 08:31:53;;;;;;;7.43;6.10;;;;;;;25.94;40.61;98299.09;5070256;28;20231;-82
2023/06/25 08:34:19;;;;;;;6.60;6.00;;;;;;;26.03;40.61;98306.00;5070548;28;20227;-82
2023/06/25 08:36:45;;;;;;;6.97;6.28;;;;;;;26.06;40.39;98304.78;5070551;28;20204;-82
2023/06/25 08:39:12;;;;;;;6.72;6.00;;;;;;;26.18;40.58;98303.19;5070172;28;20208;-82
2023/06/25 08:41:39;;;;;;;7.28;6.53;;;;;;;26.26;40.35;98297.59;5074334;28;20207;-82
2023/06/25 08:44:05;;;;;;;7.20;6.38;;;;;;;26.37;40.45;98302.44;5074102;28;20227;-82
2023/06/25 08:46:33;;;;;;;7.10;6.40;;;;;;;26.36;39.10;98290.78;5074125;28;20294;-82
2023/06/25 08:49:03;;;;;;;7.90;6.18;;;;;;;26.43;40.05;98301.63;5073767;28;20220;-82
2023/06/25 08:51:30;;;;;;;8.43;6.85;;;;;;;26.56;40.47;98313.41;5073756;28;20242;-82
2023/06/25 08:53:57;;;;;;;6.32;5.72;;;;;;;26.64;39.45;98296.16;5088940;22;20755;-79
2023/06/25 08:56:23;;;;;;;6.60;6.00;;;;;;;26.74;38.02;98273.03;5073876;28;20612;-80
2023/06/25 08:58:50;;;;;;;7.20;6.50;;;;;;;26.86;37.90;98275.97;5074174;28;20211;-80
2023/06/25 09:01:18;;;;;;;6.63;5.93;;;;;;;26.96;37.72;98269.13;5074019;28;20206;-79
2023/06/25 09:03:44;;;;;;;7.72;6.80;;;;;;;27.09;36.90;98261.00;5073895;28;20207;-79
2023/06/25 09:06:16;;;;;;;9.05;6.20;;;;;;;27.05;36.55;98254.31;5073903;28;20211;-79
2023/06/25 09:08:44;;;;;;;6.03;5.50;;;;;;;27.18;35.16;98243.50;5074038;28;20643;-80
2023/06/25 09:11:12;;;;;;;6.50;5.82;;;;;;;27.21;34.90;98237.69;5073297;28;20241;-79
2023/06/25 09:13:40;;;;;;;7.95;6.35;;;;;;;27.32;35.74;98256.03;5073747;28;20207;-80
2023/06/25 09:16:08;;;;;;;7.07;6.00;;;;;;;27.39;33.82;98236.00;5070946;28;20299;-80
2023/06/25 09:18:35;;;;;;;8.95;6.00;;;;;;;27.47;35.61;98253.97;5070690;28;20215;-80
2023/06/25 09:21:03;;;;;;;6.85;6.18;;;;;;;27.68;34.94;98251.84;5070239;28;20215;-80
2023/06/25 09:23:31;;;;;;;5.72;5.20;;;;;;;27.65;33.45;98227.81;5071264;28;20235;-80
2023/06/25 09:25:58;;;;;;;6.20;5.60;;;;;;;27.76;34.75;98245.38;5073597;28;20231;-81
2023/06/25 09:28:25;;;;;;;6.47;5.88;;;;;;;27.83;34.33;98243.53;5073441;28;20203;-80
2023/06/25 09:30:55;;;;;;;6.88;6.18;;;;;;;27.85;33.84;98234.13;5072970;28;20223;-81
2023/06/25 09:33:22;;;;;;;6.68;5.95;;;;;;;27.92;33.57;98234.09;5073199;28;20215;-81
2023/06/25 09:35:48;;;;;;;7.03;6.32;;;;;;;27.95;33.36;98233.66;5073224;28;20714;-82
2023/06/25 09:38:16;;;;;;;8.00;5.68;;;;;;;28.02;32.28;98220.91;5073199;28;20208;-82
2023/06/25 09:40:44;;;;;;;7.28;6.45;;;;;;;28.02;32.67;98223.63;5073053;28;20286;-80
2023/06/25 09:43:12;;;;;;;6.03;5.43;;;;;;;28.11;32.84;98215.00;5073270;28;20573;-80
2023/06/25 09:45:38;;;;;;;6.68;5.47;;;;;;;28.16;32.41;98217.09;5073070;28;20281;-81
2023/06/25 09:48:07;;;;;;;5.80;5.20;;;;;;;28.23;32.75;98228.75;5072990;28;20215;-80
2023/06/25 09:50:36;;;;;;;6.78;5.28;;;;;;;28.32;31.85;98212.00;5072528;28;20524;-80
2023/06/25 09:53:04;;;;;;;6.50;5.82;;;;;;;28.41;32.00;98212.63;5072705;28;20211;-80
2023/06/25 09:55:35;;;;;;;8.68;5.55;;;;;;;28.37;32.30;98214.13;5072821;28;20247;-80
2023/06/25 09:58:04;;;;;;;6.70;6.10;;;;;;;28.38;32.57;98210.34;5072915;28;20207;-80
2023/06/25 10:00:33;;;;;;;6.55;5.95;;;;;;;28.54;32.87;98220.72;5072461;28;20211;-80
2023/06/25 10:03:00;;;;;;;6.00;5.50;;;;;;;28.61;31.79;98200.59;5072620;28;20755;-81
2023/06/25 10:05:27;;;;;;;7.03;6.10;;;;;;;28.69;31.64;98202.22;5072849;28;20250;-80
2023/06/25 10:07:53;;;;;;;7.07;6.32;;;;;;;28.57;31.27;98193.09;5072845;28;20203;-80
2023/06/25 10:10:21;;;;;;;6.60;6.00;;;;;;;28.68;29.99;98184.25;5072381;28;20204;-81
2023/06/25 10:12:49;;;;;;;6.25;5.65;;;;;;;28.35;29.87;98167.22;5072663;28;20206;-81
2023/06/25 10:15:27;;;;;;;7.18;6.47;;;;;;;28.33;31.77;98182.94;5072260;28;20285;-81
2023/06/25 10:17:54;;;;;;;6.68;6.07;;;;;;;28.52;31.04;98184.75;5072649;28;20230;-80
2023/06/25 10:20:27;;;;;;;6.47;5.82;;;;;;;28.54;32.75;98199.78;5072263;28;20215;-81
2023/06/25 10:23:05;;;;;;;7.20;5.65;;;;;;;28.58;31.22;98170.28;5072274;28;20207;-81
2023/06/25 10:25:31;;;;;;;6.55;5.88;;;;;;;28.50;30.44;98162.38;5072385;28;20231;-81
2023/06/25 10:28:10;;;;;;;6.43;5.82;;;;;;;28.49;31.63;98182.47;5072210;28;20250;-81
2023/06/25 10:30:40;;;;;;;6.43;5.78;;;;;;;28.66;30.88;98145.53;5071936;28;20695;-81
2023/06/25 10:33:07;;;;;;;7.00;6.30;;;;;;;28.84;32.07;98179.09;5072307;28;20207;-83
2023/06/25 10:35:40;;;;;;;6.32;5.72;;;;;;;28.91;31.16;98168.19;5072144;28;20219;-83
2023/06/25 10:38:07;;;;;;;7.05;6.35;;;;;;;28.95;30.86;98169.44;5072043;28;20208;-83
2023/06/25 10:40:34;;;;;;;6.65;6.03;;;;;;;28.90;31.70;98171.94;5071938;28;20374;-84
2023/06/25 10:43:01;;;;;;;6.40;5.80;;;;;;;28.86;30.98;98168.00;5072030;28;20211;-84
2023/06/25 10:45:27;;;;;;;7.15;5.93;;;;;;;28.90;31.16;98155.59;5071930;28;20227;-84
2023/06/25 10:48:05;;;;;;;7.78;5.85;;;;;;;29.04;31.45;98166.22;5071833;28;20303;-83
2023/06/25 10:50:33;;;;;;;5.70;5.20;;;;;;;29.18;30.60;98156.06;5071444;28;20222;-82
2023/06/25 10:53:01;;;;;;;6.47;5.78;;;;;;;29.21;30.41;98155.59;5072089;28;20553;-83
2023/06/25 10:55:27;;;;;;;7.22;5.40;;;;;;;29.36;30.85;98162.41;5071707;28;20239;-82
2023/06/25 10:57:55;;;;;;;8.32;5.82;;;;;;;29.54;29.64;98150.72;5071851;28;20293;-83
2023/06/25 11:00:23;;;;;;;5.47;4.97;;;;;;;29.63;29.63;98142.03;5071685;28;20203;-82
2023/06/25 11:02:51;;;;;;;5.70;5.20;;;;;;;29.69;30.54;98157.47;5071315;28;20257;-82
2023/06/25 11:05:20;;;;;;;7.97;5.88;;;;;;;29.75;30.41;98156.56;5072195;28;20726;-81
2023/06/25 11:07:52;;;;;;;6.03;5.43;;;;;;;29.82;30.05;98156.47;5072978;28;20203;-81
2023/06/25 11:10:19;;;;;;;6.25;5.57;;;;;;;29.76;28.44;98135.59;5072935;28;20244;-82
2023/06/25 11:12:46;;;;;;;5.38;4.88;;;;;;;29.61;27.54;98116.06;5072146;28;20231;-84
2023/06/25 11:15:12;;;;;;;5.47;4.90;;;;;;;29.47;27.71;98109.06;5071469;28;20353;-83
2023/06/25 11:17:38;;;;;;;6.03;5.00;;;;;;;29.53;28.73;98114.47;5071515;28;20211;-83
2023/06/25 11:20:06;;;;;;;5.80;5.30;;;;;;;29.48;28.69;98116.19;5071384;28;20242;-82
2023/06/25 11:22:39;;;;;;;6.13;5.47;;;;;;;29.68;29.30;98122.28;5071680;28;20223;-82
2023/06/25 11:25:07;;;;;;;6.25;5.65;;;;;;;29.80;29.00;98121.31;5071480;28;20231;-82
2023/06/25 11:27:34;;;;;;;6.20;5.60;;;;;;;29.86;30.40;98144.06;5072020;28;20208;-83
2023/06/25 11:30:03;;;;;;;6.05;5.45;;;;;;;29.83;27.24;98095.50;5071062;28;20207;-82
2023/06/25 11:32:30;;;;;;;6.70;6.05;;;;;;;29.70;27.95;98099.19;5071411;28;20325;-82
2023/06/25 11:34:57;;;;;;;6.05;5.45;;;;;;;29.77;29.30;98115.47;5070998;28;20284;-83
2023/06/25 11:37:26;;;;;;;6.20;5.50;;;;;;;29.90;30.00;98120.78;5071233;28;20203;-83